sensor_id;sensor_type;location;lat;lon;timestamp;P1;P2;P0
72031;PMS5003;49185;42.320;23.198;2024-01-30T00:01:40;2559.33;2559.33;2559.33
72031;PMS5003;49185;42.320;23.198;2024-01-30T00:04:05;2558.33;2558.33;2558.33
72031;PMS5003;49185;42.320;23.198;2024-01-30T00:06:31;2559.33;2559.33;2559.33
72031;PMS5003;49185;42.320;23.198;2024-01-30T00:08:56;2559.33;2559.33;2559.33
72031;PMS5003;49185;42.320;23.198;2024-01-30T00:11:21;2561.33;2561.33;2561.33
72031;PMS5003;49185;42.320;23.198;2024-01-30T00:13:47;2558.33;2558.33;2558.33
72031;PMS5003;49185;42.320;23.198;2024-01-30T00:16:22;2556.33;2556.33;2556.33
72031;PMS5003;49185;42.320;23.198;2024-01-30T00:18:48;2558.50;2558.50;2558.50
72031;PMS5003;49185;42.320;23.198;2024-01-30T00:21:13;2556.33;2556.33;2556.33
72031;PMS5003;49185;42.320;23.198;2024-01-30T00:23:38;2556.33;2556.33;2556.33
72031;PMS5003;49185;42.320;23.198;2024-01-30T00:26:04;2555.33;2555.33;2555.33
72031;PMS5003;49185;42.320;23.198;2024-01-30T00:28:29;2546.33;2546.33;2546.33
72031;PMS5003;49185;42.320;23.198;2024-01-30T00:30:55;2541.00;2541.00;2541.00
72031;PMS5003;49185;42.320;23.198;2024-01-30T00:33:20;2544.33;2544.33;2544.33
72031;PMS5003;49185;42.320;23.198;2024-01-30T00:35:45;2553.33;2553.33;2553.33
72031;PMS5003;49185;42.320;23.198;2024-01-30T00:38:11;2541.00;2541.00;2541.00
72031;PMS5003;49185;42.320;23.198;2024-01-30T00:40:36;2549.33;2549.33;2549.33
72031;PMS5003;49185;42.320;23.198;2024-01-30T00:43:01;2550.33;2550.33;2550.33
72031;PMS5003;49185;42.320;23.198;2024-01-30T00:45:27;2549.33;2549.33;2549.33
72031;PMS5003;49185;42.320;23.198;2024-01-30T00:47:52;2549.33;2549.33;2549.33
72031;PMS5003;49185;42.320;23.198;2024-01-30T00:50:17;2537.00;2537.00;2537.00
72031;PMS5003;49185;42.320;23.198;2024-01-30T00:52:44;2548.00;2548.00;2548.00
72031;PMS5003;49185;42.320;23.198;2024-01-30T00:55:09;2543.00;2543.00;2543.00
72031;PMS5003;49185;42.320;23.198;2024-01-30T00:57:35;2534.00;2534.00;2534.00
72031;PMS5003;49185;42.320;23.198;2024-01-30T01:00:00;2541.00;2541.00;2541.00
72031;PMS5003;49185;42.320;23.198;2024-01-30T01:02:26;2541.00;2541.00;2541.00
72031;PMS5003;49185;42.320;23.198;2024-01-30T01:04:51;2531.00;2531.00;2531.00
72031;PMS5003;49185;42.320;23.198;2024-01-30T01:07:16;2527.33;2527.33;2527.33
72031;PMS5003;49185;42.320;23.198;2024-01-30T01:09:42;2538.00;2538.00;2538.00
72031;PMS5003;49185;42.320;23.198;2024-01-30T01:12:07;2538.00;2538.00;2538.00
72031;PMS5003;49185;42.320;23.198;2024-01-30T01:14:32;2540.00;2540.00;2540.00
72031;PMS5003;49185;42.320;23.198;2024-01-30T01:16:58;2528.33;2528.33;2528.33
72031;PMS5003;49185;42.320;23.198;2024-01-30T01:19:23;2538.00;2538.00;2538.00
72031;PMS5003;49185;42.320;23.198;2024-01-30T01:21:49;2538.00;2538.00;2538.00
72031;PMS5003;49185;42.320;23.198;2024-01-30T01:24:14;2538.00;2538.00;2538.00
72031;PMS5003;49185;42.320;23.198;2024-01-30T01:26:39;2535.00;2535.00;2535.00
72031;PMS5003;49185;42.320;23.198;2024-01-30T01:29:06;2535.00;2535.00;2535.00
72031;PMS5003;49185;42.320;23.198;2024-01-30T01:31:31;2538.50;2538.50;2538.50
72031;PMS5003;49185;42.320;23.198;2024-01-30T01:33:57;2522.33;2522.33;2522.33
72031;PMS5003;49185;42.320;23.198;2024-01-30T01:36:22;2532.00;2532.00;2532.00
72031;PMS5003;49185;42.320;23.198;2024-01-30T01:38:47;2522.33;2522.33;2522.33
72031;PMS5003;49185;42.320;23.198;2024-01-30T01:41:13;2519.33;2519.33;2519.33
72031;PMS5003;49185;42.320;23.198;2024-01-30T01:43:38;2519.33;2519.33;2519.33
72031;PMS5003;49185;42.320;23.198;2024-01-30T01:46:04;2528.33;2528.33;2528.33
72031;PMS5003;49185;42.320;23.198;2024-01-30T01:48:30;2532.00;2532.00;2532.00
72031;PMS5003;49185;42.320;23.198;2024-01-30T01:50:55;2522.33;2522.33;2522.33
72031;PMS5003;49185;42.320;23.198;2024-01-30T01:53:21;2535.50;2535.50;2535.50
72031;PMS5003;49185;42.320;23.198;2024-01-30T01:55:47;2522.33;2522.33;2522.33
72031;PMS5003;49185;42.320;23.198;2024-01-30T01:58:13;2537.00;2537.00;2537.00
72031;PMS5003;49185;42.320;23.198;2024-01-30T02:00:39;2524.50;2524.50;2524.50
72031;PMS5003;49185;42.320;23.198;2024-01-30T02:03:05;2532.00;2532.00;2532.00
72031;PMS5003;49185;42.320;23.198;2024-01-30T02:05:30;2524.50;2524.50;2524.50
72031;PMS5003;49185;42.320;23.198;2024-01-30T02:07:57;2532.00;2532.00;2532.00
72031;PMS5003;49185;42.320;23.198;2024-01-30T02:10:23;2518.50;2518.50;2518.50
72031;PMS5003;49185;42.320;23.198;2024-01-30T02:12:48;2512.33;2512.33;2512.33
72031;PMS5003;49185;42.320;23.198;2024-01-30T02:15:14;2526.00;2526.00;2526.00
72031;PMS5003;49185;42.320;23.198;2024-01-30T02:17:39;2512.33;2512.33;2512.33
72031;PMS5003;49185;42.320;23.198;2024-01-30T02:20:05;2519.33;2519.33;2519.33
72031;PMS5003;49185;42.320;23.198;2024-01-30T02:22:31;2512.33;2512.33;2512.33
72031;PMS5003;49185;42.320;23.198;2024-01-30T02:24:59;2523.00;2523.00;2523.00
72031;PMS5003;49185;42.320;23.198;2024-01-30T02:27:24;2522.33;2522.33;2522.33
72031;PMS5003;49185;42.320;23.198;2024-01-30T02:29:50;2512.33;2512.33;2512.33
72031;PMS5003;49185;42.320;23.198;2024-01-30T02:32:15;2515.33;2515.33;2515.33
72031;PMS5003;49185;42.320;23.198;2024-01-30T02:34:41;2522.33;2522.33;2522.33
72031;PMS5003;49185;42.320;23.198;2024-01-30T02:37:06;2524.33;2524.33;2524.33
72031;PMS5003;49185;42.320;23.198;2024-01-30T02:39:31;2522.33;2522.33;2522.33
72031;PMS5003;49185;42.320;23.198;2024-01-30T02:41:57;2522.33;2522.33;2522.33
72031;PMS5003;49185;42.320;23.198;2024-01-30T02:44:22;2513.33;2513.33;2513.33
72031;PMS5003;49185;42.320;23.198;2024-01-30T02:46:47;2525.33;2525.33;2525.33
72031;PMS5003;49185;42.320;23.198;2024-01-30T02:49:13;2524.33;2524.33;2524.33
72031;PMS5003;49185;42.320;23.198;2024-01-30T02:51:38;2513.33;2513.33;2513.33
72031;PMS5003;49185;42.320;23.198;2024-01-30T02:54:04;2515.33;2515.33;2515.33
72031;PMS5003;49185;42.320;23.198;2024-01-30T02:56:29;2525.33;2525.33;2525.33
72031;PMS5003;49185;42.320;23.198;2024-01-30T02:58:54;2527.33;2527.33;2527.33
72031;PMS5003;49185;42.320;23.198;2024-01-30T03:01:20;2516.33;2516.33;2516.33
72031;PMS5003;49185;42.320;23.198;2024-01-30T03:03:45;2527.33;2527.33;2527.33
72031;PMS5003;49185;42.320;23.198;2024-01-30T03:06:10;2518.33;2518.33;2518.33
72031;PMS5003;49185;42.320;23.198;2024-01-30T03:08:36;2531.00;2531.00;2531.00
72031;PMS5003;49185;42.320;23.198;2024-01-30T03:11:01;2521.33;2521.33;2521.33
72031;PMS5003;49185;42.320;23.198;2024-01-30T03:13:26;2522.33;2522.33;2522.33
72031;PMS5003;49185;42.320;23.198;2024-01-30T03:15:52;2519.33;2519.33;2519.33
72031;PMS5003;49185;42.320;23.198;2024-01-30T03:18:17;2519.33;2519.33;2519.33
72031;PMS5003;49185;42.320;23.198;2024-01-30T03:20:43;2521.33;2521.33;2521.33
72031;PMS5003;49185;42.320;23.198;2024-01-30T03:23:08;2521.33;2521.33;2521.33
72031;PMS5003;49185;42.320;23.198;2024-01-30T03:25:33;2531.00;2531.00;2531.00
72031;PMS5003;49185;42.320;23.198;2024-01-30T03:27:59;2522.33;2522.33;2522.33
72031;PMS5003;49185;42.320;23.198;2024-01-30T03:30:24;2532.00;2532.00;2532.00
72031;PMS5003;49185;42.320;23.198;2024-01-30T03:32:49;2532.00;2532.00;2532.00
72031;PMS5003;49185;42.320;23.198;2024-01-30T03:35:15;2522.33;2522.33;2522.33
72031;PMS5003;49185;42.320;23.198;2024-01-30T03:37:40;2522.33;2522.33;2522.33
72031;PMS5003;49185;42.320;23.198;2024-01-30T03:40:06;2532.00;2532.00;2532.00
72031;PMS5003;49185;42.320;23.198;2024-01-30T03:42:32;2537.00;2537.00;2537.00
72031;PMS5003;49185;42.320;23.198;2024-01-30T03:44:57;2534.00;2534.00;2534.00
72031;PMS5003;49185;42.320;23.198;2024-01-30T03:47:22;2534.00;2534.00;2534.00
72031;PMS5003;49185;42.320;23.198;2024-01-30T03:49:48;2532.00;2532.00;2532.00
72031;PMS5003;49185;42.320;23.198;2024-01-30T03:52:13;2522.33;2522.33;2522.33
72031;PMS5003;49185;42.320;23.198;2024-01-30T03:54:39;2522.33;2522.33;2522.33
72031;PMS5003;49185;42.320;23.198;2024-01-30T03:57:04;2522.33;2522.33;2522.33
72031;PMS5003;49185;42.320;23.198;2024-01-30T03:59:30;2534.00;2534.00;2534.00
72031;PMS5003;49185;42.320;23.198;2024-01-30T04:01:55;2535.00;2535.00;2535.00
72031;PMS5003;49185;42.320;23.198;2024-01-30T04:04:22;2534.00;2534.00;2534.00
72031;PMS5003;49185;42.320;23.198;2024-01-30T04:06:47;2524.50;2524.50;2524.50
72031;PMS5003;49185;42.320;23.198;2024-01-30T04:09:13;2522.33;2522.33;2522.33
72031;PMS5003;49185;42.320;23.198;2024-01-30T04:11:39;2524.50;2524.50;2524.50
72031;PMS5003;49185;42.320;23.198;2024-01-30T04:14:04;2523.00;2523.00;2523.00
72031;PMS5003;49185;42.320;23.198;2024-01-30T04:16:30;2526.00;2526.00;2526.00
72031;PMS5003;49185;42.320;23.198;2024-01-30T04:18:55;2521.33;2521.33;2521.33
72031;PMS5003;49185;42.320;23.198;2024-01-30T04:21:21;2532.00;2532.00;2532.00
72031;PMS5003;49185;42.320;23.198;2024-01-30T04:23:46;2534.00;2534.00;2534.00
72031;PMS5003;49185;42.320;23.198;2024-01-30T04:26:12;2532.00;2532.00;2532.00
72031;PMS5003;49185;42.320;23.198;2024-01-30T04:28:37;2524.33;2524.33;2524.33
72031;PMS5003;49185;42.320;23.198;2024-01-30T04:31:03;2532.00;2532.00;2532.00
72031;PMS5003;49185;42.320;23.198;2024-01-30T04:33:28;2534.00;2534.00;2534.00
72031;PMS5003;49185;42.320;23.198;2024-01-30T04:35:53;2522.33;2522.33;2522.33
72031;PMS5003;49185;42.320;23.198;2024-01-30T04:38:19;2521.33;2521.33;2521.33
72031;PMS5003;49185;42.320;23.198;2024-01-30T04:40:44;2531.00;2531.00;2531.00
72031;PMS5003;49185;42.320;23.198;2024-01-30T04:43:10;2528.33;2528.33;2528.33
72031;PMS5003;49185;42.320;23.198;2024-01-30T04:45:35;2532.00;2532.00;2532.00
72031;PMS5003;49185;42.320;23.198;2024-01-30T04:48:00;2524.33;2524.33;2524.33
72031;PMS5003;49185;42.320;23.198;2024-01-30T04:50:26;2532.00;2532.00;2532.00
72031;PMS5003;49185;42.320;23.198;2024-01-30T04:52:51;2531.00;2531.00;2531.00
72031;PMS5003;49185;42.320;23.198;2024-01-30T04:55:16;2522.33;2522.33;2522.33
72031;PMS5003;49185;42.320;23.198;2024-01-30T04:57:42;2531.00;2531.00;2531.00
72031;PMS5003;49185;42.320;23.198;2024-01-30T05:00:07;2531.00;2531.00;2531.00
72031;PMS5003;49185;42.320;23.198;2024-01-30T05:02:33;2532.00;2532.00;2532.00
72031;PMS5003;49185;42.320;23.198;2024-01-30T05:04:58;2531.00;2531.00;2531.00
72031;PMS5003;49185;42.320;23.198;2024-01-30T05:07:24;2519.33;2519.33;2519.33
72031;PMS5003;49185;42.320;23.198;2024-01-30T05:09:50;2529.00;2529.00;2529.00
72031;PMS5003;49185;42.320;23.198;2024-01-30T05:12:15;2516.33;2516.33;2516.33
72031;PMS5003;49185;42.320;23.198;2024-01-30T05:14:41;2516.33;2516.33;2516.33
72031;PMS5003;49185;42.320;23.198;2024-01-30T05:17:06;2525.33;2525.33;2525.33
72031;PMS5003;49185;42.320;23.198;2024-01-30T05:19:31;2518.33;2518.33;2518.33
72031;PMS5003;49185;42.320;23.198;2024-01-30T05:21:57;2525.33;2525.33;2525.33
72031;PMS5003;49185;42.320;23.198;2024-01-30T05:24:22;2516.33;2516.33;2516.33
72031;PMS5003;49185;42.320;23.198;2024-01-30T05:26:47;2513.33;2513.33;2513.33
72031;PMS5003;49185;42.320;23.198;2024-01-30T05:29:13;2525.33;2525.33;2525.33
72031;PMS5003;49185;42.320;23.198;2024-01-30T05:31:38;2525.33;2525.33;2525.33
72031;PMS5003;49185;42.320;23.198;2024-01-30T05:34:03;2525.33;2525.33;2525.33
72031;PMS5003;49185;42.320;23.198;2024-01-30T05:36:29;2513.33;2513.33;2513.33
72031;PMS5003;49185;42.320;23.198;2024-01-30T05:38:55;2513.33;2513.33;2513.33
72031;PMS5003;49185;42.320;23.198;2024-01-30T05:41:21;2515.50;2515.50;2515.50
72031;PMS5003;49185;42.320;23.198;2024-01-30T05:43:46;2512.33;2512.33;2512.33
72031;PMS5003;49185;42.320;23.198;2024-01-30T05:46:12;2512.33;2512.33;2512.33
72031;PMS5003;49185;42.320;23.198;2024-01-30T05:48:37;2509.00;2509.00;2509.00
72031;PMS5003;49185;42.320;23.198;2024-01-30T05:51:02;2513.33;2513.33;2513.33
72031;PMS5003;49185;42.320;23.198;2024-01-30T05:53:28;2519.33;2519.33;2519.33
72031;PMS5003;49185;42.320;23.198;2024-01-30T05:55:53;2510.33;2510.33;2510.33
72031;PMS5003;49185;42.320;23.198;2024-01-30T05:58:19;2510.33;2510.33;2510.33
72031;PMS5003;49185;42.320;23.198;2024-01-30T06:00:44;2519.33;2519.33;2519.33
72031;PMS5003;49185;42.320;23.198;2024-01-30T06:03:09;2522.33;2522.33;2522.33
72031;PMS5003;49185;42.320;23.198;2024-01-30T06:05:35;2519.33;2519.33;2519.33
72031;PMS5003;49185;42.320;23.198;2024-01-30T06:08:01;2522.33;2522.33;2522.33
72031;PMS5003;49185;42.320;23.198;2024-01-30T06:10:27;2517.00;2517.00;2517.00
72031;PMS5003;49185;42.320;23.198;2024-01-30T06:12:52;2524.33;2524.33;2524.33
72031;PMS5003;49185;42.320;23.198;2024-01-30T06:15:18;2525.33;2525.33;2525.33
72031;PMS5003;49185;42.320;23.198;2024-01-30T06:17:43;2518.33;2518.33;2518.33
72031;PMS5003;49185;42.320;23.198;2024-01-30T06:20:08;2527.33;2527.33;2527.33
72031;PMS5003;49185;42.320;23.198;2024-01-30T06:22:34;2535.00;2535.00;2535.00
72031;PMS5003;49185;42.320;23.198;2024-01-30T06:24:59;2541.00;2541.00;2541.00
72031;PMS5003;49185;42.320;23.198;2024-01-30T06:27:25;2553.33;2553.33;2553.33
72031;PMS5003;49185;42.320;23.198;2024-01-30T06:29:50;2572.33;2572.33;2572.33
72031;PMS5003;49185;42.320;23.198;2024-01-30T06:32:15;2585.33;2585.33;2585.33
72031;PMS5003;49185;42.320;23.198;2024-01-30T06:34:41;2598.67;2598.67;2598.67
72031;PMS5003;49185;42.320;23.198;2024-01-30T06:37:06;2594.67;2594.67;2594.67
72031;PMS5003;49185;42.320;23.198;2024-01-30T06:39:32;2604.67;2604.67;2604.67
72031;PMS5003;49185;42.320;23.198;2024-01-30T06:41:57;2596.67;2596.67;2596.67
72031;PMS5003;49185;42.320;23.198;2024-01-30T06:44:22;2616.67;2616.67;2616.67
72031;PMS5003;49185;42.320;23.198;2024-01-30T06:46:48;2617.67;2617.67;2617.67
72031;PMS5003;49185;42.320;23.198;2024-01-30T06:49:13;2620.67;2620.67;2620.67
72031;PMS5003;49185;42.320;23.198;2024-01-30T06:51:38;2637.67;2637.67;2637.67
72031;PMS5003;49185;42.320;23.198;2024-01-30T06:54:04;2634.00;2634.00;2634.00
72031;PMS5003;49185;42.320;23.198;2024-01-30T06:56:30;2654.00;2654.00;2654.00
72031;PMS5003;49185;42.320;23.198;2024-01-30T06:58:55;2653.00;2653.00;2653.00
72031;PMS5003;49185;42.320;23.198;2024-01-30T07:01:20;2661.00;2661.00;2661.00
72031;PMS5003;49185;42.320;23.198;2024-01-30T07:03:52;2679.00;2679.00;2679.00
72031;PMS5003;49185;42.320;23.198;2024-01-30T07:06:17;2680.67;2680.67;2680.67
72031;PMS5003;49185;42.320;23.198;2024-01-30T07:08:43;2673.67;2673.67;2673.67
72031;PMS5003;49185;42.320;23.198;2024-01-30T07:11:08;2682.00;2682.00;2682.00
72031;PMS5003;49185;42.320;23.198;2024-01-30T07:13:34;2675.00;2675.00;2675.00
72031;PMS5003;49185;42.320;23.198;2024-01-30T07:16:00;2673.50;2673.50;2673.50
72031;PMS5003;49185;42.320;23.198;2024-01-30T07:18:25;2687.50;2687.50;2687.50
72031;PMS5003;49185;42.320;23.198;2024-01-30T07:20:51;2691.00;2691.00;2691.00
72031;PMS5003;49185;42.320;23.198;2024-01-30T07:23:16;2677.00;2677.00;2677.00
72031;PMS5003;49185;42.320;23.198;2024-01-30T07:25:42;2688.33;2688.33;2688.33
72031;PMS5003;49185;42.320;23.198;2024-01-30T07:28:08;2684.00;2684.00;2684.00
72031;PMS5003;49185;42.320;23.198;2024-01-30T07:30:33;2686.00;2686.00;2686.00
72031;PMS5003;49185;42.320;23.198;2024-01-30T07:32:59;2705.00;2705.00;2705.00
72031;PMS5003;49185;42.320;23.198;2024-01-30T07:35:24;2694.00;2694.00;2694.00
72031;PMS5003;49185;42.320;23.198;2024-01-30T07:37:49;2706.33;2706.33;2706.33
72031;PMS5003;49185;42.320;23.198;2024-01-30T07:40:15;2702.33;2702.33;2702.33
72031;PMS5003;49185;42.320;23.198;2024-01-30T07:42:41;2710.50;2710.50;2710.50
72031;PMS5003;49185;42.320;23.198;2024-01-30T07:45:07;2724.50;2724.50;2724.50
72031;PMS5003;49185;42.320;23.198;2024-01-30T07:47:33;2720.50;2720.50;2720.50
72031;PMS5003;49185;42.320;23.198;2024-01-30T07:49:58;2692.00;2692.00;2692.00
72031;PMS5003;49185;42.320;23.198;2024-01-30T07:52:23;2691.00;2691.00;2691.00
72031;PMS5003;49185;42.320;23.198;2024-01-30T07:54:49;2664.67;2664.67;2664.67
72031;PMS5003;49185;42.320;23.198;2024-01-30T07:57:15;2662.00;2662.00;2662.00
72031;PMS5003;49185;42.320;23.198;2024-01-30T07:59:44;2660.00;2660.00;2660.00
72031;PMS5003;49185;42.320;23.198;2024-01-30T08:02:10;2679.00;2679.00;2679.00
72031;PMS5003;49185;42.320;23.198;2024-01-30T08:04:36;2689.00;2689.00;2689.00
72031;PMS5003;49185;42.320;23.198;2024-01-30T08:07:02;2684.00;2684.00;2684.00
72031;PMS5003;49185;42.320;23.198;2024-01-30T08:09:27;2699.00;2699.00;2699.00
72031;PMS5003;49185;42.320;23.198;2024-01-30T08:11:53;2691.00;2691.00;2691.00
72031;PMS5003;49185;42.320;23.198;2024-01-30T08:14:18;2688.33;2688.33;2688.33
72031;PMS5003;49185;42.320;23.198;2024-01-30T08:16:44;2696.00;2696.00;2696.00
72031;PMS5003;49185;42.320;23.198;2024-01-30T08:19:09;2702.33;2702.33;2702.33
72031;PMS5003;49185;42.320;23.198;2024-01-30T08:21:35;2702.33;2702.33;2702.33
72031;PMS5003;49185;42.320;23.198;2024-01-30T08:24:00;2688.33;2688.33;2688.33
72031;PMS5003;49185;42.320;23.198;2024-01-30T08:26:26;2691.00;2691.00;2691.00
72031;PMS5003;49185;42.320;23.198;2024-01-30T08:28:51;2706.33;2706.33;2706.33
72031;PMS5003;49185;42.320;23.198;2024-01-30T08:31:16;2713.33;2713.33;2713.33
72031;PMS5003;49185;42.320;23.198;2024-01-30T08:33:42;2712.00;2712.00;2712.00
72031;PMS5003;49185;42.320;23.198;2024-01-30T08:36:07;2705.00;2705.00;2705.00
72031;PMS5003;49185;42.320;23.198;2024-01-30T08:38:33;2702.33;2702.33;2702.33
72031;PMS5003;49185;42.320;23.198;2024-01-30T08:40:58;2705.00;2705.00;2705.00
72031;PMS5003;49185;42.320;23.198;2024-01-30T08:43:23;2716.33;2716.33;2716.33
72031;PMS5003;49185;42.320;23.198;2024-01-30T08:45:49;2701.00;2701.00;2701.00
72031;PMS5003;49185;42.320;23.198;2024-01-30T08:48:14;2716.33;2716.33;2716.33
72031;PMS5003;49185;42.320;23.198;2024-01-30T08:50:39;2723.33;2723.33;2723.33
72031;PMS5003;49185;42.320;23.198;2024-01-30T08:53:05;2730.00;2730.00;2730.00
72031;PMS5003;49185;42.320;23.198;2024-01-30T08:55:30;2731.33;2731.33;2731.33
72031;PMS5003;49185;42.320;23.198;2024-01-30T08:57:56;2724.67;2724.67;2724.67
72031;PMS5003;49185;42.320;23.198;2024-01-30T09:00:21;2728.67;2728.67;2728.67
72031;PMS5003;49185;42.320;23.198;2024-01-30T09:02:46;2731.33;2731.33;2731.33
72031;PMS5003;49185;42.320;23.198;2024-01-30T09:05:12;2738.33;2738.33;2738.33
72031;PMS5003;49185;42.320;23.198;2024-01-30T09:07:37;2740.33;2740.33;2740.33
72031;PMS5003;49185;42.320;23.198;2024-01-30T09:10:03;2740.33;2740.33;2740.33
72031;PMS5003;49185;42.320;23.198;2024-01-30T09:12:28;2737.00;2737.00;2737.00
72031;PMS5003;49185;42.320;23.198;2024-01-30T09:27:46;2833.50;2833.50;2833.50
72031;PMS5003;49185;42.320;23.198;2024-01-30T09:30:11;2779.00;2779.00;2779.00
72031;PMS5003;49185;42.320;23.198;2024-01-30T09:32:39;2771.50;2771.50;2771.50
72031;PMS5003;49185;42.320;23.198;2024-01-30T09:35:04;2753.00;2753.00;2753.00
72031;PMS5003;49185;42.320;23.198;2024-01-30T09:37:30;2756.33;2756.33;2756.33
72031;PMS5003;49185;42.320;23.198;2024-01-30T09:39:55;2738.33;2738.33;2738.33
72031;PMS5003;49185;42.320;23.198;2024-01-30T09:42:26;2752.67;2752.67;2752.67
72031;PMS5003;49185;42.320;23.198;2024-01-30T09:44:58;2749.50;2749.50;2749.50
72031;PMS5003;49185;42.320;23.198;2024-01-30T09:47:23;2751.33;2751.33;2751.33
72031;PMS5003;49185;42.320;23.198;2024-01-30T09:49:49;2738.50;2738.50;2738.50
72031;PMS5003;49185;42.320;23.198;2024-01-30T09:52:16;2738.50;2738.50;2738.50
72031;PMS5003;49185;42.320;23.198;2024-01-30T09:54:42;2755.00;2755.00;2755.00
72031;PMS5003;49185;42.320;23.198;2024-01-30T09:57:11;2759.00;2759.00;2759.00
72031;PMS5003;49185;42.320;23.198;2024-01-30T09:59:36;2749.50;2749.50;2749.50
72031;PMS5003;49185;42.320;23.198;2024-01-30T10:02:02;2752.67;2752.67;2752.67
72031;PMS5003;49185;42.320;23.198;2024-01-30T10:04:27;2770.67;2770.67;2770.67
72031;PMS5003;49185;42.320;23.198;2024-01-30T10:06:53;2756.33;2756.33;2756.33
72031;PMS5003;49185;42.320;23.198;2024-01-30T10:09:18;2758.33;2758.33;2758.33
72031;PMS5003;49185;42.320;23.198;2024-01-30T10:11:43;2764.67;2764.67;2764.67
72031;PMS5003;49185;42.320;23.198;2024-01-30T10:14:09;2767.33;2767.33;2767.33
72031;PMS5003;49185;42.320;23.198;2024-01-30T10:16:34;2779.67;2779.67;2779.67
72031;PMS5003;49185;42.320;23.198;2024-01-30T10:19:00;2762.33;2762.33;2762.33
72031;PMS5003;49185;42.320;23.198;2024-01-30T10:21:25;2777.33;2777.33;2777.33
72031;PMS5003;49185;42.320;23.198;2024-01-30T10:23:51;2766.33;2766.33;2766.33
72031;PMS5003;49185;42.320;23.198;2024-01-30T10:26:16;2766.33;2766.33;2766.33
72031;PMS5003;49185;42.320;23.198;2024-01-30T10:28:42;2770.67;2770.67;2770.67
72031;PMS5003;49185;42.320;23.198;2024-01-30T10:31:07;2793.00;2793.00;2793.00
72031;PMS5003;49185;42.320;23.198;2024-01-30T10:33:32;2784.33;2784.33;2784.33
72031;PMS5003;49185;42.320;23.198;2024-01-30T10:36:02;2790.00;2790.00;2790.00
72031;PMS5003;49185;42.320;23.198;2024-01-30T10:38:31;2771.50;2771.50;2771.50
72031;PMS5003;49185;42.320;23.198;2024-01-30T10:40:58;2764.00;2764.00;2764.00
72031;PMS5003;49185;42.320;23.198;2024-01-30T10:43:31;2764.00;2764.00;2764.00
72031;PMS5003;49185;42.320;23.198;2024-01-30T10:45:57;2768.00;2768.00;2768.00
72031;PMS5003;49185;42.320;23.198;2024-01-30T10:48:32;2753.00;2753.00;2753.00
72031;PMS5003;49185;42.320;23.198;2024-01-30T10:51:01;2746.00;2746.00;2746.00
72031;PMS5003;49185;42.320;23.198;2024-01-30T10:53:29;2740.50;2740.50;2740.50
72031;PMS5003;49185;42.320;23.198;2024-01-30T10:55:56;2764.00;2764.00;2764.00
72031;PMS5003;49185;42.320;23.198;2024-01-30T10:58:22;2755.00;2755.00;2755.00
72031;PMS5003;49185;42.320;23.198;2024-01-30T11:00:48;2759.67;2759.67;2759.67
72031;PMS5003;49185;42.320;23.198;2024-01-30T11:03:15;2751.00;2751.00;2751.00
72031;PMS5003;49185;42.320;23.198;2024-01-30T11:05:41;2751.00;2751.00;2751.00
72031;PMS5003;49185;42.320;23.198;2024-01-30T11:08:10;2766.33;2766.33;2766.33
72031;PMS5003;49185;42.320;23.198;2024-01-30T11:10:46;2771.50;2771.50;2771.50
72031;PMS5003;49185;42.320;23.198;2024-01-30T11:13:15;2775.00;2775.00;2775.00
72031;PMS5003;49185;42.320;23.198;2024-01-30T11:15:41;2760.50;2760.50;2760.50
72031;PMS5003;49185;42.320;23.198;2024-01-30T11:18:06;2769.33;2769.33;2769.33
72031;PMS5003;49185;42.320;23.198;2024-01-30T11:20:32;2773.33;2773.33;2773.33
72031;PMS5003;49185;42.320;23.198;2024-01-30T11:22:58;2788.00;2788.00;2788.00
72031;PMS5003;49185;42.320;23.198;2024-01-30T11:25:25;2777.00;2777.00;2777.00
72031;PMS5003;49185;42.320;23.198;2024-01-30T11:27:51;2781.00;2781.00;2781.00
72031;PMS5003;49185;42.320;23.198;2024-01-30T11:35:34;2771.50;2771.50;2771.50
72031;PMS5003;49185;42.320;23.198;2024-01-30T11:38:01;2770.00;2770.00;2770.00
72031;PMS5003;49185;42.320;23.198;2024-01-30T11:40:27;2779.00;2779.00;2779.00
72031;PMS5003;49185;42.320;23.198;2024-01-30T11:42:54;2786.00;2786.00;2786.00
72031;PMS5003;49185;42.320;23.198;2024-01-30T11:45:20;2779.00;2779.00;2779.00
72031;PMS5003;49185;42.320;23.198;2024-01-30T11:47:45;2777.33;2777.33;2777.33
72031;PMS5003;49185;42.320;23.198;2024-01-30T11:50:11;2775.00;2775.00;2775.00
72031;PMS5003;49185;42.320;23.198;2024-01-30T11:52:37;2766.33;2766.33;2766.33
72031;PMS5003;49185;42.320;23.198;2024-01-30T11:55:03;2755.00;2755.00;2755.00
72031;PMS5003;49185;42.320;23.198;2024-01-30T11:57:29;2757.00;2757.00;2757.00
72031;PMS5003;49185;42.320;23.198;2024-01-30T11:59:54;2763.67;2763.67;2763.67
72031;PMS5003;49185;42.320;23.198;2024-01-30T12:02:20;2771.50;2771.50;2771.50
72031;PMS5003;49185;42.320;23.198;2024-01-30T12:04:46;2757.67;2757.67;2757.67
72031;PMS5003;49185;42.320;23.198;2024-01-30T12:07:12;2758.33;2758.33;2758.33
72031;PMS5003;49185;42.320;23.198;2024-01-30T12:09:37;2763.67;2763.67;2763.67
72031;PMS5003;49185;42.320;23.198;2024-01-30T12:12:03;2754.00;2754.00;2754.00
72031;PMS5003;49185;42.320;23.198;2024-01-30T12:14:28;2752.67;2752.67;2752.67
72031;PMS5003;49185;42.320;23.198;2024-01-30T12:16:54;2775.00;2775.00;2775.00
72031;PMS5003;49185;42.320;23.198;2024-01-30T12:19:23;2781.67;2781.67;2781.67
72031;PMS5003;49185;42.320;23.198;2024-01-30T12:21:58;2775.00;2775.00;2775.00
72031;PMS5003;49185;42.320;23.198;2024-01-30T12:24:24;2766.00;2766.00;2766.00
72031;PMS5003;49185;42.320;23.198;2024-01-30T12:26:50;2783.00;2783.00;2783.00
72031;PMS5003;49185;42.320;23.198;2024-01-30T12:29:16;2755.33;2755.33;2755.33
72031;PMS5003;49185;42.320;23.198;2024-01-30T12:31:42;2763.67;2763.67;2763.67
72031;PMS5003;49185;42.320;23.198;2024-01-30T12:34:13;2757.00;2757.00;2757.00
72031;PMS5003;49185;42.320;23.198;2024-01-30T12:36:39;2784.50;2784.50;2784.50
72031;PMS5003;49185;42.320;23.198;2024-01-30T12:39:04;2776.00;2776.00;2776.00
72031;PMS5003;49185;42.320;23.198;2024-01-30T12:41:30;2789.67;2789.67;2789.67